1876 Tropical Storm NOT_NAMED (1876247N14325)


IBTrACS version v04r00. Visit IBTrACS website for data access.
Please direct all questions to the IBTrACS Q and A forum

Storm track - Intensity - Wind Radii - Intensity Data - Source Data - All data

Summary Information

Storm ID 1876247N14325
Start Sep 2 12Z
Max Intensity 55 kt (Sep 10 18Z)
End Sep 11 12Z
ATCF IDs
Track status Best track data.

Storm track plot

Map of storm track

Intensity plots

Map of storm track

Radial wind information

No radial wind information for this storm


Position and Intensity Table

BASIN ISO_TIME_________ NATURE LAT LON MLC WIND
degrees north degrees east kts
NA 1876-09-02 12:00:00 TS 13.50 -35.50 30
NA 15:00:00 TS 13.75 -36.00 30
NA 18:00:00 TS 14.00 -36.50 30
NA 21:00:00 TS 14.25 -37.00 30
NA 1876-09-03 00:00:00 TS 14.50 -37.50 30
NA 03:00:00 TS 14.75 -38.00 30
NA 06:00:00 TS 15.00 -38.50 30
NA 09:00:00 TS 15.24 -38.99 32
NA 12:00:00 TS 15.50 -39.50 35
NA 15:00:00 TS 15.80 -40.09 35
NA 18:00:00 TS 16.10 -40.70 35
NA 21:00:00 TS 16.35 -41.26 35
NA 1876-09-04 00:00:00 TS 16.60 -41.80 35
NA 03:00:00 TS 16.90 -42.35 35
NA 06:00:00 TS 17.20 -42.90 35
NA 09:00:00 TS 17.43 -43.47 37
NA 12:00:00 TS 17.70 -44.00 40
NA 15:00:00 TS 18.12 -44.43 40
NA 18:00:00 TS 18.60 -44.80 40
NA 21:00:00 TS 19.05 -45.15 40
NA 1876-09-05 00:00:00 TS 19.50 -45.50 40
NA 03:00:00 TS 19.95 -45.90 40
NA 06:00:00 TS 20.40 -46.30 40
NA 09:00:00 TS 20.83 -46.66 42
NA 12:00:00 TS 21.30 -47.00 45
NA 15:00:00 TS 21.88 -47.36 45
NA 18:00:00 TS 22.50 -47.70 45
NA 21:00:00 TS 23.10 -48.01 45
NA 1876-09-06 00:00:00 TS 23.70 -48.30 45
NA 03:00:00 TS 24.31 -48.60 45
NA 06:00:00 TS 24.90 -48.90 45
NA 09:00:00 TS 25.47 -49.23 45
NA 12:00:00 TS 26.00 -49.50 45
NA 15:00:00 TS 26.46 -49.64 45
NA 18:00:00 TS 26.90 -49.70 45
NA 21:00:00 TS 27.36 -49.76 45
NA 1876-09-07 00:00:00 TS 27.80 -49.80 45
NA 03:00:00 TS 28.20 -49.85 45
NA 06:00:00 TS 28.60 -49.90 45
NA 09:00:00 TS 29.04 -49.96 45
NA 12:00:00 TS 29.50 -50.00 45
NA 15:00:00 TS 29.95 -50.01 47
NA 18:00:00 TS 30.40 -50.00 50
NA 21:00:00 TS 30.85 -50.00 50
NA 1876-09-08 00:00:00 TS 31.30 -50.00 50
NA 03:00:00 TS 31.76 -50.00 50
NA 06:00:00 TS 32.20 -50.00 50
NA 09:00:00 TS 32.61 -50.02 50
NA 12:00:00 TS 33.00 -50.00 50
NA 15:00:00 TS 33.40 -49.87 50
NA 18:00:00 TS 33.80 -49.70 50
NA 21:00:00 TS 34.20 -49.60 50
NA 1876-09-09 00:00:00 TS 34.60 -49.50 50
NA 03:00:00 TS 35.00 -49.35 50
NA 06:00:00 TS 35.40 -49.20 50
NA 09:00:00 TS 35.74 -49.14 50
NA 12:00:00 TS 36.20 -49.00 50
NA 15:00:00 TS 36.94 -48.64 50
NA 18:00:00 TS 37.80 -48.20 50
NA 21:00:00 TS 38.60 -47.85 50
NA 1876-09-10 00:00:00 TS 39.40 -47.50 50
NA 03:00:00 TS 40.21 -47.10 50
NA 06:00:00 TS 41.00 -46.70 50
NA 09:00:00 TS 41.78 -46.45 50
NA 12:00:00 TS 42.50 -46.00 50
NA 15:00:00 TS 43.13 -45.01 52
NA 18:00:00 TS 43.70 -43.80 55
NA 21:00:00 TS 44.26 -42.74 55
NA 1876-09-11 00:00:00 TS 44.80 -41.70 55
NA 03:00:00 TS 45.35 -40.65 55
NA 06:00:00 TS 45.90 -39.60 55
NA 09:00:00 TS 46.45 -38.55 55
NA 12:00:00 ET 47.00 -37.50 55

Source Information

Agency Information
USA
TOKYO
CMA
HKO
NEWDELHI
REUNION
BOM
NADI
WELLINGTON
DS824
TD9636
TD9635
NEUMANN
MLC

All available IBTrACS Data

SEASON BASIN SUBBASIN ISO_TIME_________ NATURE LAT LON DIST2LAND LANDFALL IFLAG USA SSHS MLC LAT MLC LON MLC CLASS MLC WIND STORM SPEED STORM DIR
Year degrees north degrees east km km 1 degrees north degrees east kts kts degrees
1876 NA NA 1876-09-02 12:00:00 TS 13.50 -35.50 1897 1895 _____________O -1 13.50 -35.50 TD 30 11 297
1876 NA NA 15:00:00 TS 13.75 -36.00 1917 1912 _____________P -1 13.75 -36.00 TD 30 11 297
1876 NA NA 18:00:00 TS 14.00 -36.50 1928 1920 _____________O -1 14.00 -36.50 TD 30 11 297
1876 NA NA 21:00:00 TS 14.25 -37.00 1920 1895 _____________P -1 14.25 -37.00 TD 30 11 297
1876 NA NA 1876-09-03 00:00:00 TS 14.50 -37.50 1895 1865 _____________O -1 14.50 -37.50 TD 30 11 297
1876 NA NA 03:00:00 TS 14.75 -38.00 1865 1844 _____________P -1 14.75 -38.00 TD 30 11 297
1876 NA NA 06:00:00 TS 15.00 -38.50 1844 1817 _____________O -1 15.00 -38.50 TD 30 11 297
1876 NA NA 09:00:00 TS 15.24 -38.99 1817 1800 _____________P -1 15.24 -38.99 TD 32 11 297
1876 NA NA 12:00:00 TS 15.50 -39.50 1800 1777 _____________O -1 15.50 -39.50 TS 35 12 298
1876 NA NA 15:00:00 TS 15.80 -40.09 1777 1756 _____________P -1 15.80 -40.09 TS 35 13 297
1876 NA NA 18:00:00 TS 16.10 -40.70 1757 1738 _____________O -1 16.10 -40.70 TS 35 13 296
1876 NA NA 21:00:00 TS 16.35 -41.26 1732 1722 _____________P -1 16.35 -41.26 TS 35 12 295
1876 NA NA 1876-09-04 00:00:00 TS 16.60 -41.80 1724 1710 _____________O -1 16.60 -41.80 TS 35 12 298
1876 NA NA 03:00:00 TS 16.90 -42.35 1713 1707 _____________P -1 16.90 -42.35 TS 35 12 300
1876 NA NA 06:00:00 TS 17.20 -42.90 1709 1691 _____________O -1 17.20 -42.90 TS 35 12 296
1876 NA NA 09:00:00 TS 17.43 -43.47 1687 1680 _____________P -1 17.43 -43.47 TS 37 12 295
1876 NA NA 12:00:00 TS 17.70 -44.00 1683 1677 _____________O -1 17.70 -44.00 TS 40 11 307
1876 NA NA 15:00:00 TS 18.12 -44.43 1697 1691 _____________P -1 18.12 -44.43 TS 40 12 320
1876 NA NA 18:00:00 TS 18.60 -44.80 1723 1723 _____________O -1 18.60 -44.80 TS 40 12 324
1876 NA NA 21:00:00 TS 19.05 -45.15 1741 1741 _____________P -1 19.05 -45.15 TS 40 11 324
1876 NA NA 1876-09-05 00:00:00 TS 19.50 -45.50 1775 1775 _____________O -1 19.50 -45.50 TS 40 11 322
1876 NA NA 03:00:00 TS 19.95 -45.90 1807 1802 _____________P -1 19.95 -45.90 TS 40 12 320
1876 NA NA 06:00:00 TS 20.40 -46.30 1830 1830 _____________O -1 20.40 -46.30 TS 40 11 321
1876 NA NA 09:00:00 TS 20.83 -46.66 1854 1854 _____________P -1 20.83 -46.66 TS 42 11 324
1876 NA NA 12:00:00 TS 21.30 -47.00 1890 1890 _____________O -1 21.30 -47.00 TS 45 12 328
1876 NA NA 15:00:00 TS 21.88 -47.36 1915 1914 _____________P -1 21.88 -47.36 TS 45 14 332
1876 NA NA 18:00:00 TS 22.50 -47.70 1918 1899 _____________O -1 22.50 -47.70 TS 45 14 334
1876 NA NA 21:00:00 TS 23.10 -48.01 1902 1885 _____________P -1 23.10 -48.01 TS 45 13 335
1876 NA NA 1876-09-06 00:00:00 TS 23.70 -48.30 1888 1874 _____________O -1 23.70 -48.30 TS 45 13 336
1876 NA NA 03:00:00 TS 24.31 -48.60 1877 1866 _____________P -1 24.31 -48.60 TS 45 13 335
1876 NA NA 06:00:00 TS 24.90 -48.90 1870 1857 _____________O -1 24.90 -48.90 TS 45 13 334
1876 NA NA 09:00:00 TS 25.47 -49.23 1865 1855 _____________P -1 25.47 -49.23 TS 45 12 334
1876 NA NA 12:00:00 TS 26.00 -49.50 1859 1855 _____________O -1 26.00 -49.50 TS 45 11 340
1876 NA NA 15:00:00 TS 26.46 -49.64 1874 1865 _____________P -1 26.46 -49.64 TS 45 9 349
1876 NA NA 18:00:00 TS 26.90 -49.70 1884 1884 _____________O -1 26.90 -49.70 TS 45 9 353
1876 NA NA 21:00:00 TS 27.36 -49.76 1902 1902 _____________P -1 27.36 -49.76 TS 45 9 355
1876 NA NA 1876-09-07 00:00:00 TS 27.80 -49.80 1923 1923 _____________O -1 27.80 -49.80 TS 45 9 355
1876 NA NA 03:00:00 TS 28.20 -49.85 1937 1937 _____________P -1 28.20 -49.85 TS 45 8 354
1876 NA NA 06:00:00 TS 28.60 -49.90 1961 1961 _____________O -1 28.60 -49.90 TS 45 9 354
1876 NA NA 09:00:00 TS 29.04 -49.96 1977 1924 _____________P -1 29.04 -49.96 TS 45 9 355
1876 NA NA 12:00:00 TS 29.50 -50.00 1924 1879 _____________O -1 29.50 -50.00 TS 45 9 358
1876 NA NA 15:00:00 TS 29.95 -50.01 1868 1824 _____________P -1 29.95 -50.01 TS 47 9 0
1876 NA NA 18:00:00 TS 30.40 -50.00 1824 1780 _____________O -1 30.40 -50.00 TS 50 9 0
1876 NA NA 21:00:00 TS 30.85 -50.00 1769 1725 _____________P -1 30.85 -50.00 TS 50 9 0
1876 NA NA 1876-09-08 00:00:00 TS 31.30 -50.00 1725 1680 _____________O -1 31.30 -50.00 TS 50 9 0
1876 NA NA 03:00:00 TS 31.76 -50.00 1669 1625 _____________P -1 31.76 -50.00 TS 50 9 0
1876 NA NA 06:00:00 TS 32.20 -50.00 1625 1581 _____________O -1 32.20 -50.00 TS 50 9 358
1876 NA NA 09:00:00 TS 32.61 -50.02 1581 1537 _____________P -1 32.61 -50.02 TS 50 8 1
1876 NA NA 12:00:00 TS 33.00 -50.00 1537 1495 _____________O -1 33.00 -50.00 TS 50 8 9
1876 NA NA 15:00:00 TS 33.40 -49.87 1495 1454 _____________P -1 33.40 -49.87 TS 50 8 17
1876 NA NA 18:00:00 TS 33.80 -49.70 1454 1412 _____________O -1 33.80 -49.70 TS 50 8 15
1876 NA NA 21:00:00 TS 34.20 -49.60 1412 1370 _____________P -1 34.20 -49.60 TS 50 8 12
1876 NA NA 1876-09-09 00:00:00 TS 34.60 -49.50 1370 1329 _____________O -1 34.60 -49.50 TS 50 8 14
1876 NA NA 03:00:00 TS 35.00 -49.35 1329 1289 _____________P -1 35.00 -49.35 TS 50 8 17
1876 NA NA 06:00:00 TS 35.40 -49.20 1289 1257 _____________O -1 35.40 -49.20 TS 50 8 13
1876 NA NA 09:00:00 TS 35.74 -49.14 1259 1208 _____________P -1 35.74 -49.14 TS 50 8 12
1876 NA NA 12:00:00 TS 36.20 -49.00 1208 1140 _____________O -1 36.20 -49.00 TS 50 13 19
1876 NA NA 15:00:00 TS 36.94 -48.64 1143 1060 _____________P -1 36.94 -48.64 TS 50 17 22
1876 NA NA 18:00:00 TS 37.80 -48.20 1060 988 _____________O -1 37.80 -48.20 TS 50 18 21
1876 NA NA 21:00:00 TS 38.60 -47.85 992 923 _____________P -1 38.60 -47.85 TS 50 17 19
1876 NA NA 1876-09-10 00:00:00 TS 39.40 -47.50 923 863 _____________O -1 39.40 -47.50 TS 50 17 20
1876 NA NA 03:00:00 TS 40.21 -47.10 863 810 _____________P -1 40.21 -47.10 TS 50 17 21
1876 NA NA 06:00:00 TS 41.00 -46.70 810 761 _____________O -1 41.00 -46.70 TS 50 16 17
1876 NA NA 09:00:00 TS 41.78 -46.45 752 727 _____________P -1 41.78 -46.45 TS 50 16 19
1876 NA NA 12:00:00 TS 42.50 -46.00 727 725 _____________O -1 42.50 -46.00 TS 50 17 38
1876 NA NA 15:00:00 TS 43.13 -45.01 749 749 _____________P -1 43.13 -45.01 TS 52 20 53
1876 NA NA 18:00:00 TS 43.70 -43.80 795 795 _____________O -1 43.70 -43.80 TS 55 20 56
1876 NA NA 21:00:00 TS 44.26 -42.74 840 840 _____________P -1 44.26 -42.74 TS 55 19 54
1876 NA NA 1876-09-11 00:00:00 TS 44.80 -41.70 887 887 _____________O -1 44.80 -41.70 TS 55 18 54
1876 NA NA 03:00:00 TS 45.35 -40.65 947 943 _____________P -1 45.35 -40.65 TS 55 18 53
1876 NA NA 06:00:00 TS 45.90 -39.60 1001 1001 _____________O -1 45.90 -39.60 TS 55 18 53
1876 NA NA 09:00:00 TS 46.45 -38.55 1061 1061 _____________P -1 46.45 -38.55 TS 55 18 53
1876 NA NA 12:00:00 ET 47.00 -37.50 1134 _____________O -1 47.00 -37.50 EX 55 18 53